Chilo, Ohio
Current Conditions -  °F | °C
As of 6:53 PM on Friday 31 Oct 2014 (Local Time) from KLUK Reporting Station
Overcast Overcast  
Wind Chill: 36°   Ceiling: 3200
Heat Index: 41°   Visibility: 10mi
Dew Point: 34°   Wind: 8mph
Humidity: 76%   Direction: 300°WNW
Pressure: 29.98"   Gusts: NA
Location:  38.8°N, 84.14°W
Report Text: KLUK 312253Z 30007KT 10SM FEW020 OVC032 05/01 A2998 RMK AO2 RAE2156 SLP153 P0000 T00500011
Loading
Personal Weather Stations






























Interactive Weather Map
Tropical Storm Tracking
New forecast layout! Learn more

10-Day Weather Forecast

Advertisements
Track Severe Weather on mobile